sensor_id;sensor_type;location;lat;lon;timestamp;pressure;altitude;pressure_sealevel;temperature;humidity
74169;BME280;62523;53.336;83.690;2023-05-10T00:03:41;99901.81;;;7.50;100.00
74169;BME280;62523;53.336;83.690;2023-05-10T00:08:43;99913.63;;;7.64;100.00
74169;BME280;62523;53.336;83.690;2023-05-10T00:13:45;99898.63;;;8.16;100.00
74169;BME280;62523;53.336;83.690;2023-05-10T00:18:48;99880.47;;;8.10;100.00
74169;BME280;62523;53.336;83.690;2023-05-10T00:23:50;99868.00;;;7.91;100.00
74169;BME280;62523;53.336;83.690;2023-05-10T00:28:52;99853.41;;;7.84;100.00
74169;BME280;62523;53.336;83.690;2023-05-10T00:33:54;99862.13;;;7.85;100.00
74169;BME280;62523;53.336;83.690;2023-05-10T00:38:56;99874.09;;;8.40;100.00
74169;BME280;62523;53.336;83.690;2023-05-10T00:43:58;99871.41;;;8.42;100.00
74169;BME280;62523;53.336;83.690;2023-05-10T00:49:01;99870.75;;;8.35;100.00
74169;BME280;62523;53.336;83.690;2023-05-10T00:54:05;99868.19;;;8.34;100.00
74169;BME280;62523;53.336;83.690;2023-05-10T00:59:08;99874.66;;;8.49;100.00
74169;BME280;62523;53.336;83.690;2023-05-10T01:04:12;99896.03;;;8.38;100.00
74169;BME280;62523;53.336;83.690;2023-05-10T01:09:14;99904.59;;;8.43;100.00
74169;BME280;62523;53.336;83.690;2023-05-10T01:14:18;99909.72;;;8.48;98.04
74169;BME280;62523;53.336;83.690;2023-05-10T01:19:26;99905.94;;;8.77;96.93
74169;BME280;62523;53.336;83.690;2023-05-10T01:25:32;99898.97;;;8.76;98.03
74169;BME280;62523;53.336;83.690;2023-05-10T01:46:17;99905.28;;;9.77;91.60
74169;BME280;62523;53.336;83.690;2023-05-10T01:51:23;99924.63;;;9.56;91.48
74169;BME280;62523;53.336;83.690;2023-05-10T01:56:26;99906.97;;;9.78;89.51
74169;BME280;62523;53.336;83.690;2023-05-10T02:01:31;99906.88;;;9.81;88.61
74169;BME280;62523;53.336;83.690;2023-05-10T02:06:34;99911.13;;;9.63;91.08
74169;BME280;62523;53.336;83.690;2023-05-10T02:11:42;99923.72;;;9.14;87.32
74169;BME280;62523;53.336;83.690;2023-05-10T02:16:45;99926.78;;;9.04;87.85
74169;BME280;62523;53.336;83.690;2023-05-10T02:21:49;99931.91;;;9.49;87.40
74169;BME280;62523;53.336;83.690;2023-05-10T02:26:54;99936.81;;;9.79;86.32
74169;BME280;62523;53.336;83.690;2023-05-10T02:32:00;99937.25;;;9.89;81.71
74169;BME280;62523;53.336;83.690;2023-05-10T02:37:03;99949.00;;;9.39;85.01
74169;BME280;62523;53.336;83.690;2023-05-10T02:42:08;99951.31;;;9.47;86.47
74169;BME280;62523;53.336;83.690;2023-05-10T02:47:12;99943.88;;;9.36;85.77
74169;BME280;62523;53.336;83.690;2023-05-10T02:52:17;99952.38;;;9.42;85.67
74169;BME280;62523;53.336;83.690;2023-05-10T02:57:57;99946.09;;;10.07;84.22
74169;BME280;62523;53.336;83.690;2023-05-10T03:03:00;99951.03;;;10.14;83.90
74169;BME280;62523;53.336;83.690;2023-05-10T03:08:04;99952.94;;;10.88;77.86
74169;BME280;62523;53.336;83.690;2023-05-10T03:13:14;99955.53;;;10.71;74.98
74169;BME280;62523;53.336;83.690;2023-05-10T03:18:22;99955.59;;;10.50;75.16
74169;BME280;62523;53.336;83.690;2023-05-10T03:23:40;99961.34;;;10.77;69.04
74169;BME280;62523;53.336;83.690;2023-05-10T03:28:45;99966.81;;;11.47;66.61
74169;BME280;62523;53.336;83.690;2023-05-10T03:33:52;99961.00;;;11.04;66.46
74169;BME280;62523;53.336;83.690;2023-05-10T03:39:00;99953.75;;;11.61;64.62
74169;BME280;62523;53.336;83.690;2023-05-10T03:44:02;99965.63;;;11.70;63.24
74169;BME280;62523;53.336;83.690;2023-05-10T03:49:04;99970.31;;;11.82;60.72
74169;BME280;62523;53.336;83.690;2023-05-10T03:54:07;99972.34;;;11.95;58.84
74169;BME280;62523;53.336;83.690;2023-05-10T03:59:09;99973.78;;;11.48;58.66
74169;BME280;62523;53.336;83.690;2023-05-10T04:04:11;99970.22;;;12.19;56.39
74169;BME280;62523;53.336;83.690;2023-05-10T04:09:13;99962.50;;;12.32;55.66
74169;BME280;62523;53.336;83.690;2023-05-10T04:14:15;99969.59;;;11.61;57.44
74169;BME280;62523;53.336;83.690;2023-05-10T04:19:18;99972.00;;;11.48;57.25
74169;BME280;62523;53.336;83.690;2023-05-10T04:24:20;99977.19;;;11.50;55.18
74169;BME280;62523;53.336;83.690;2023-05-10T04:29:22;99983.66;;;11.44;54.92
74169;BME280;62523;53.336;83.690;2023-05-10T04:34:24;99971.34;;;11.26;54.25
74169;BME280;62523;53.336;83.690;2023-05-10T04:39:27;99971.31;;;11.62;52.65
74169;BME280;62523;53.336;83.690;2023-05-10T04:44:29;99978.94;;;12.03;51.87
74169;BME280;62523;53.336;83.690;2023-05-10T04:49:31;99976.03;;;12.25;51.50
74169;BME280;62523;53.336;83.690;2023-05-10T04:54:33;99975.56;;;12.35;50.61
74169;BME280;62523;53.336;83.690;2023-05-10T04:59:36;99976.16;;;11.89;49.98
74169;BME280;62523;53.336;83.690;2023-05-10T05:04:39;99984.50;;;12.15;47.67
74169;BME280;62523;53.336;83.690;2023-05-10T05:09:41;99980.97;;;11.81;47.83
74169;BME280;62523;53.336;83.690;2023-05-10T05:14:43;99979.13;;;12.00;46.91
74169;BME280;62523;53.336;83.690;2023-05-10T05:19:47;99980.78;;;12.52;44.62
74169;BME280;62523;53.336;83.690;2023-05-10T05:24:49;99985.88;;;12.39;44.49
74169;BME280;62523;53.336;83.690;2023-05-10T05:29:57;99973.97;;;11.97;45.01
74169;BME280;62523;53.336;83.690;2023-05-10T05:35:00;99979.28;;;12.31;45.24
74169;BME280;62523;53.336;83.690;2023-05-10T05:40:05;99978.84;;;12.72;38.87
74169;BME280;62523;53.336;83.690;2023-05-10T05:45:08;99975.34;;;12.71;37.92
74169;BME280;62523;53.336;83.690;2023-05-10T05:50:24;99965.47;;;12.59;38.57
74169;BME280;62523;53.336;83.690;2023-05-10T05:55:26;99964.78;;;13.03;39.53
74169;BME280;62523;53.336;83.690;2023-05-10T06:00:28;99971.16;;;12.99;35.66
74169;BME280;62523;53.336;83.690;2023-05-10T06:05:31;99974.44;;;13.04;33.97
74169;BME280;62523;53.336;83.690;2023-05-10T06:10:33;99965.13;;;12.97;35.11
74169;BME280;62523;53.336;83.690;2023-05-10T06:15:35;99974.69;;;12.99;35.13
74169;BME280;62523;53.336;83.690;2023-05-10T06:20:37;99971.81;;;13.50;34.35
74169;BME280;62523;53.336;83.690;2023-05-10T06:25:39;99981.91;;;13.43;31.62
74169;BME280;62523;53.336;83.690;2023-05-10T06:30:42;99975.31;;;13.50;32.01
74169;BME280;62523;53.336;83.690;2023-05-10T06:35:45;99977.44;;;13.29;32.33
74169;BME280;62523;53.336;83.690;2023-05-10T06:40:47;99981.09;;;13.73;33.09
74169;BME280;62523;53.336;83.690;2023-05-10T06:45:50;99962.97;;;13.65;32.52
74169;BME280;62523;53.336;83.690;2023-05-10T06:50:52;99974.25;;;13.69;32.81
74169;BME280;62523;53.336;83.690;2023-05-10T06:55:54;99978.50;;;14.16;30.15
74169;BME280;62523;53.336;83.690;2023-05-10T07:01:02;99982.50;;;13.79;30.29
74169;BME280;62523;53.336;83.690;2023-05-10T07:06:05;99974.56;;;13.79;29.57
74169;BME280;62523;53.336;83.690;2023-05-10T07:11:08;99974.41;;;13.36;29.85
74169;BME280;62523;53.336;83.690;2023-05-10T07:16:10;99971.69;;;13.67;29.44
74169;BME280;62523;53.336;83.690;2023-05-10T07:21:12;99967.84;;;13.73;29.91
74169;BME280;62523;53.336;83.690;2023-05-10T07:26:14;99959.28;;;13.68;30.75
74169;BME280;62523;53.336;83.690;2023-05-10T07:31:17;99967.94;;;13.71;30.07
74169;BME280;62523;53.336;83.690;2023-05-10T07:36:19;99959.47;;;13.95;29.85
74169;BME280;62523;53.336;83.690;2023-05-10T07:41:21;99965.56;;;13.67;30.57
74169;BME280;62523;53.336;83.690;2023-05-10T07:46:26;99952.88;;;14.17;30.71
74169;BME280;62523;53.336;83.690;2023-05-10T07:51:28;99954.47;;;14.05;29.81
74169;BME280;62523;53.336;83.690;2023-05-10T07:56:31;99961.59;;;14.62;28.80
74169;BME280;62523;53.336;83.690;2023-05-10T08:01:34;99970.47;;;14.32;28.32
74169;BME280;62523;53.336;83.690;2023-05-10T08:06:36;99964.41;;;14.30;28.45
74169;BME280;62523;53.336;83.690;2023-05-10T08:11:39;99964.63;;;14.56;28.40
74169;BME280;62523;53.336;83.690;2023-05-10T08:16:41;99959.41;;;14.83;27.86
74169;BME280;62523;53.336;83.690;2023-05-10T08:21:44;99978.72;;;14.70;27.04
74169;BME280;62523;53.336;83.690;2023-05-10T08:26:46;99973.34;;;14.43;28.28
74169;BME280;62523;53.336;83.690;2023-05-10T08:31:49;99971.31;;;14.18;27.65
74169;BME280;62523;53.336;83.690;2023-05-10T08:36:51;99974.91;;;14.89;26.73
74169;BME280;62523;53.336;83.690;2023-05-10T08:42:00;99978.31;;;14.91;25.99
74169;BME280;62523;53.336;83.690;2023-05-10T08:47:05;99974.63;;;14.79;25.50
74169;BME280;62523;53.336;83.690;2023-05-10T08:52:11;99971.03;;;15.22;26.78
74169;BME280;62523;53.336;83.690;2023-05-10T08:57:14;99970.44;;;15.04;25.72
74169;BME280;62523;53.336;83.690;2023-05-10T09:02:17;99976.16;;;14.69;25.77
74169;BME280;62523;53.336;83.690;2023-05-10T09:07:20;99975.09;;;14.43;25.72
74169;BME280;62523;53.336;83.690;2023-05-10T09:12:23;99971.06;;;14.80;25.34
74169;BME280;62523;53.336;83.690;2023-05-10T09:17:25;99970.72;;;14.99;25.89
74169;BME280;62523;53.336;83.690;2023-05-10T09:22:30;99982.81;;;14.76;26.41
74169;BME280;62523;53.336;83.690;2023-05-10T09:27:32;99971.28;;;14.63;26.57
74169;BME280;62523;53.336;83.690;2023-05-10T09:32:42;99981.38;;;14.56;25.87
74169;BME280;62523;53.336;83.690;2023-05-10T09:37:46;99976.34;;;14.51;25.47
74169;BME280;62523;53.336;83.690;2023-05-10T09:43:01;99979.78;;;14.68;26.16
74169;BME280;62523;53.336;83.690;2023-05-10T09:48:04;99980.41;;;14.86;25.94
74169;BME280;62523;53.336;83.690;2023-05-10T09:53:06;99967.34;;;14.97;25.94
74169;BME280;62523;53.336;83.690;2023-05-10T09:58:08;99977.28;;;14.79;26.09
74169;BME280;62523;53.336;83.690;2023-05-10T10:03:18;99968.22;;;15.38;25.93
74169;BME280;62523;53.336;83.690;2023-05-10T10:08:21;99977.25;;;15.35;26.06
74169;BME280;62523;53.336;83.690;2023-05-10T10:13:23;99980.69;;;14.81;26.02
74169;BME280;62523;53.336;83.690;2023-05-10T10:18:26;99972.13;;;15.05;25.63
74169;BME280;62523;53.336;83.690;2023-05-10T10:23:28;99974.53;;;15.22;25.86
74169;BME280;62523;53.336;83.690;2023-05-10T10:34:26;99979.38;;;15.15;25.51
74169;BME280;62523;53.336;83.690;2023-05-10T10:39:30;99981.88;;;15.19;25.35
74169;BME280;62523;53.336;83.690;2023-05-10T10:55:01;99976.75;;;15.01;25.40
74169;BME280;62523;53.336;83.690;2023-05-10T11:10:34;99961.03;;;15.52;24.58
74169;BME280;62523;53.336;83.690;2023-05-10T11:15:38;99977.16;;;15.36;23.36
74169;BME280;62523;53.336;83.690;2023-05-10T11:20:40;99963.66;;;15.40;22.94
74169;BME280;62523;53.336;83.690;2023-05-10T11:25:43;99957.66;;;15.63;22.97
74169;BME280;62523;53.336;83.690;2023-05-10T11:30:48;99958.78;;;15.46;23.13
74169;BME280;62523;53.336;83.690;2023-05-10T11:35:51;99969.69;;;15.69;22.50
74169;BME280;62523;53.336;83.690;2023-05-10T11:40:53;99963.97;;;15.35;22.79
74169;BME280;62523;53.336;83.690;2023-05-10T11:45:56;99956.28;;;15.57;22.51
74169;BME280;62523;53.336;83.690;2023-05-10T11:51:00;99958.34;;;15.40;22.74
74169;BME280;62523;53.336;83.690;2023-05-10T11:56:05;99956.88;;;15.48;22.71
74169;BME280;62523;53.336;83.690;2023-05-10T12:01:09;99969.00;;;15.12;22.73
74169;BME280;62523;53.336;83.690;2023-05-10T12:06:12;99959.41;;;15.10;22.58
74169;BME280;62523;53.336;83.690;2023-05-10T12:11:14;99956.75;;;15.37;22.73
74169;BME280;62523;53.336;83.690;2023-05-10T12:16:24;99949.47;;;15.93;22.16
74169;BME280;62523;53.336;83.690;2023-05-10T12:21:29;99952.34;;;16.29;21.96
74169;BME280;62523;53.336;83.690;2023-05-10T12:26:35;99953.91;;;16.44;21.46
74169;BME280;62523;53.336;83.690;2023-05-10T12:31:56;99955.75;;;15.92;21.81
74169;BME280;62523;53.336;83.690;2023-05-10T12:36:59;99943.59;;;15.75;21.69
74169;BME280;62523;53.336;83.690;2023-05-10T12:42:01;99944.06;;;16.08;21.60
74169;BME280;62523;53.336;83.690;2023-05-10T12:47:03;99944.34;;;15.77;21.54
74169;BME280;62523;53.336;83.690;2023-05-10T12:52:06;99953.56;;;15.05;22.56
74169;BME280;62523;53.336;83.690;2023-05-10T12:57:08;99949.03;;;14.92;22.65
74169;BME280;62523;53.336;83.690;2023-05-10T13:02:10;99944.25;;;14.27;23.20
74169;BME280;62523;53.336;83.690;2023-05-10T13:07:12;99944.53;;;14.08;23.72
74169;BME280;62523;53.336;83.690;2023-05-10T13:12:15;99939.72;;;14.01;23.56
74169;BME280;62523;53.336;83.690;2023-05-10T13:17:17;99936.31;;;13.99;23.96
74169;BME280;62523;53.336;83.690;2023-05-10T13:22:19;99930.50;;;13.78;24.18
74169;BME280;62523;53.336;83.690;2023-05-10T13:27:21;99935.88;;;13.76;24.14
74169;BME280;62523;53.336;83.690;2023-05-10T13:32:23;99937.75;;;13.74;24.18
74169;BME280;62523;53.336;83.690;2023-05-10T13:37:25;99933.56;;;13.56;24.43
74169;BME280;62523;53.336;83.690;2023-05-10T13:42:27;99934.09;;;13.46;24.73
74169;BME280;62523;53.336;83.690;2023-05-10T13:47:30;99938.13;;;13.38;25.34
74169;BME280;62523;53.336;83.690;2023-05-10T13:52:32;99945.06;;;13.40;25.56
74169;BME280;62523;53.336;83.690;2023-05-10T13:57:34;99945.50;;;13.17;25.42
74169;BME280;62523;53.336;83.690;2023-05-10T14:02:37;99949.41;;;13.09;26.03
74169;BME280;62523;53.336;83.690;2023-05-10T14:07:39;99950.03;;;13.15;25.60
74169;BME280;62523;53.336;83.690;2023-05-10T14:12:41;99954.28;;;13.01;25.83
74169;BME280;62523;53.336;83.690;2023-05-10T14:17:43;99951.03;;;12.96;25.83
74169;BME280;62523;53.336;83.690;2023-05-10T14:22:45;99951.22;;;12.93;26.06
74169;BME280;62523;53.336;83.690;2023-05-10T14:27:47;99961.81;;;12.93;25.92
74169;BME280;62523;53.336;83.690;2023-05-10T14:32:49;99972.09;;;12.82;26.13
74169;BME280;62523;53.336;83.690;2023-05-10T14:37:52;99969.28;;;12.69;26.35
74169;BME280;62523;53.336;83.690;2023-05-10T14:42:54;99967.50;;;12.69;26.41
74169;BME280;62523;53.336;83.690;2023-05-10T14:47:56;99964.56;;;12.42;26.70
74169;BME280;62523;53.336;83.690;2023-05-10T14:52:59;99980.06;;;12.33;26.79
74169;BME280;62523;53.336;83.690;2023-05-10T14:58:04;99979.16;;;12.16;27.34
74169;BME280;62523;53.336;83.690;2023-05-10T15:03:07;99982.00;;;12.29;26.98
74169;BME280;62523;53.336;83.690;2023-05-10T15:08:09;99978.00;;;12.22;26.58
74169;BME280;62523;53.336;83.690;2023-05-10T15:13:13;99975.28;;;12.06;27.28
74169;BME280;62523;53.336;83.690;2023-05-10T15:18:16;99974.50;;;12.04;27.22
74169;BME280;62523;53.336;83.690;2023-05-10T15:23:18;99972.88;;;12.01;27.40
74169;BME280;62523;53.336;83.690;2023-05-10T15:28:20;99970.56;;;11.95;27.62
74169;BME280;62523;53.336;83.690;2023-05-10T15:33:22;99966.75;;;11.83;28.25
74169;BME280;62523;53.336;83.690;2023-05-10T15:38:24;99973.97;;;11.62;28.83
74169;BME280;62523;53.336;83.690;2023-05-10T15:43:26;99969.75;;;11.58;28.58
74169;BME280;62523;53.336;83.690;2023-05-10T15:48:28;99962.75;;;11.40;28.96
74169;BME280;62523;53.336;83.690;2023-05-10T15:53:32;99964.06;;;11.31;28.79
74169;BME280;62523;53.336;83.690;2023-05-10T15:58:34;99960.28;;;11.37;28.42
74169;BME280;62523;53.336;83.690;2023-05-10T16:03:37;99972.44;;;11.22;28.59
74169;BME280;62523;53.336;83.690;2023-05-10T16:08:39;99972.50;;;11.20;28.60
74169;BME280;62523;53.336;83.690;2023-05-10T16:13:41;99977.38;;;11.11;28.64
74169;BME280;62523;53.336;83.690;2023-05-10T16:18:43;99976.59;;;11.09;28.83
74169;BME280;62523;53.336;83.690;2023-05-10T16:23:45;99965.63;;;10.99;28.77
74169;BME280;62523;53.336;83.690;2023-05-10T16:28:47;99963.50;;;10.88;29.14
74169;BME280;62523;53.336;83.690;2023-05-10T16:33:50;99960.22;;;10.83;29.68
74169;BME280;62523;53.336;83.690;2023-05-10T16:38:52;99951.47;;;10.63;29.70
74169;BME280;62523;53.336;83.690;2023-05-10T16:43:54;99949.28;;;10.54;29.84
74169;BME280;62523;53.336;83.690;2023-05-10T16:48:58;99957.84;;;10.39;30.25
74169;BME280;62523;53.336;83.690;2023-05-10T16:54:00;99952.59;;;10.39;30.46
74169;BME280;62523;53.336;83.690;2023-05-10T16:59:02;99945.06;;;10.31;30.59
74169;BME280;62523;53.336;83.690;2023-05-10T17:04:04;99949.72;;;10.24;30.52
74169;BME280;62523;53.336;83.690;2023-05-10T17:09:07;99949.34;;;10.13;31.12
74169;BME280;62523;53.336;83.690;2023-05-10T17:14:09;99943.41;;;10.08;31.11
74169;BME280;62523;53.336;83.690;2023-05-10T17:19:11;99932.03;;;10.08;31.05
74169;BME280;62523;53.336;83.690;2023-05-10T17:24:13;99937.25;;;9.89;31.72
74169;BME280;62523;53.336;83.690;2023-05-10T17:29:15;99916.84;;;9.94;31.68
74169;BME280;62523;53.336;83.690;2023-05-10T17:34:17;99911.13;;;9.84;31.98
74169;BME280;62523;53.336;83.690;2023-05-10T17:39:19;99917.78;;;9.72;32.24
74169;BME280;62523;53.336;83.690;2023-05-10T17:44:21;99914.66;;;9.42;33.17
74169;BME280;62523;53.336;83.690;2023-05-10T17:49:25;99903.19;;;9.45;33.42
74169;BME280;62523;53.336;83.690;2023-05-10T17:54:29;99910.59;;;9.14;33.84
74169;BME280;62523;53.336;83.690;2023-05-10T17:59:31;99915.09;;;9.11;33.98
74169;BME280;62523;53.336;83.690;2023-05-10T18:04:33;99920.44;;;8.87;34.88
74169;BME280;62523;53.336;83.690;2023-05-10T18:09:35;99903.75;;;8.43;36.73
74169;BME280;62523;53.336;83.690;2023-05-10T18:14:38;99901.91;;;8.21;38.21
74169;BME280;62523;53.336;83.690;2023-05-10T18:19:40;99898.59;;;7.92;39.16
74169;BME280;62523;53.336;83.690;2023-05-10T18:24:42;99885.19;;;8.00;38.65
74169;BME280;62523;53.336;83.690;2023-05-10T18:29:45;99868.84;;;8.40;36.78
74169;BME280;62523;53.336;83.690;2023-05-10T18:34:50;99862.75;;;8.62;36.02
74169;BME280;62523;53.336;83.690;2023-05-10T18:39:53;99865.06;;;8.48;36.53
74169;BME280;62523;53.336;83.690;2023-05-10T18:44:55;99855.53;;;8.45;36.60
74169;BME280;62523;53.336;83.690;2023-05-10T18:49:57;99848.09;;;8.33;36.93
74169;BME280;62523;53.336;83.690;2023-05-10T18:55:00;99849.38;;;8.23;36.89
74169;BME280;62523;53.336;83.690;2023-05-10T19:00:03;99853.59;;;8.27;37.21
74169;BME280;62523;53.336;83.690;2023-05-10T19:05:07;99834.56;;;7.98;37.95
74169;BME280;62523;53.336;83.690;2023-05-10T19:10:12;99837.81;;;8.05;38.11
74169;BME280;62523;53.336;83.690;2023-05-10T19:15:23;99840.53;;;8.02;38.53
74169;BME280;62523;53.336;83.690;2023-05-10T19:20:25;99838.03;;;7.75;39.02
74169;BME280;62523;53.336;83.690;2023-05-10T19:25:28;99841.94;;;7.63;40.09
74169;BME280;62523;53.336;83.690;2023-05-10T19:30:31;99834.63;;;7.48;40.52
74169;BME280;62523;53.336;83.690;2023-05-10T19:35:33;99828.88;;;7.11;42.34
74169;BME280;62523;53.336;83.690;2023-05-10T19:40:35;99812.13;;;7.42;41.91
74169;BME280;62523;53.336;83.690;2023-05-10T19:45:38;99803.97;;;7.00;42.99
74169;BME280;62523;53.336;83.690;2023-05-10T19:50:40;99801.22;;;6.78;43.51
74169;BME280;62523;53.336;83.690;2023-05-10T19:55:42;99791.28;;;6.87;44.30
74169;BME280;62523;53.336;83.690;2023-05-10T20:00:45;99788.41;;;6.68;47.09
74169;BME280;62523;53.336;83.690;2023-05-10T20:05:47;99796.28;;;6.68;48.19
74169;BME280;62523;53.336;83.690;2023-05-10T20:10:50;99792.56;;;6.47;49.43
74169;BME280;62523;53.336;83.690;2023-05-10T20:15:56;99775.41;;;6.92;45.36
74169;BME280;62523;53.336;83.690;2023-05-10T20:20:59;99784.03;;;6.95;46.83
74169;BME280;62523;53.336;83.690;2023-05-10T20:26:01;99775.22;;;6.98;49.71
74169;BME280;62523;53.336;83.690;2023-05-10T20:31:04;99775.88;;;6.78;53.20
74169;BME280;62523;53.336;83.690;2023-05-10T20:36:07;99769.72;;;6.79;56.08
74169;BME280;62523;53.336;83.690;2023-05-10T20:41:10;99762.66;;;6.56;58.35
74169;BME280;62523;53.336;83.690;2023-05-10T20:46:12;99769.81;;;6.49;61.08
74169;BME280;62523;53.336;83.690;2023-05-10T20:51:14;99759.47;;;6.46;62.21
74169;BME280;62523;53.336;83.690;2023-05-10T20:56:16;99768.56;;;6.34;64.14
74169;BME280;62523;53.336;83.690;2023-05-10T21:01:19;99759.06;;;6.32;65.02
74169;BME280;62523;53.336;83.690;2023-05-10T21:06:21;99747.59;;;6.36;68.52
74169;BME280;62523;53.336;83.690;2023-05-10T21:11:24;99748.44;;;6.36;68.90
74169;BME280;62523;53.336;83.690;2023-05-10T21:16:26;99734.47;;;6.38;70.36
74169;BME280;62523;53.336;83.690;2023-05-10T21:21:29;99733.47;;;6.42;73.86
74169;BME280;62523;53.336;83.690;2023-05-10T21:26:32;99745.78;;;6.38;76.19
74169;BME280;62523;53.336;83.690;2023-05-10T21:31:34;99748.69;;;6.29;76.83
74169;BME280;62523;53.336;83.690;2023-05-10T21:36:36;99733.81;;;6.31;75.54
74169;BME280;62523;53.336;83.690;2023-05-10T21:41:38;99747.38;;;5.86;77.50
74169;BME280;62523;53.336;83.690;2023-05-10T21:46:41;99730.72;;;6.18;79.83
74169;BME280;62523;53.336;83.690;2023-05-10T21:51:43;99725.88;;;6.06;83.55
74169;BME280;62523;53.336;83.690;2023-05-10T21:56:45;99720.00;;;5.98;79.98
74169;BME280;62523;53.336;83.690;2023-05-10T22:01:48;99722.75;;;5.94;86.80
74169;BME280;62523;53.336;83.690;2023-05-10T22:06:50;99717.03;;;5.80;95.44
74169;BME280;62523;53.336;83.690;2023-05-10T22:11:52;99707.97;;;5.92;86.03
74169;BME280;62523;53.336;83.690;2023-05-10T22:16:55;99708.00;;;5.90;89.68
74169;BME280;62523;53.336;83.690;2023-05-10T22:21:58;99703.44;;;5.99;93.12
74169;BME280;62523;53.336;83.690;2023-05-10T22:27:01;99701.81;;;5.94;100.00
74169;BME280;62523;53.336;83.690;2023-05-10T22:32:04;99698.81;;;5.79;100.00
74169;BME280;62523;53.336;83.690;2023-05-10T22:37:08;99691.63;;;5.85;100.00
74169;BME280;62523;53.336;83.690;2023-05-10T22:42:11;99686.28;;;5.88;100.00
74169;BME280;62523;53.336;83.690;2023-05-10T22:47:13;99688.38;;;6.07;100.00
74169;BME280;62523;53.336;83.690;2023-05-10T22:52:17;99679.59;;;5.80;100.00
74169;BME280;62523;53.336;83.690;2023-05-10T22:57:19;99664.56;;;6.14;100.00
74169;BME280;62523;53.336;83.690;2023-05-10T23:02:21;99659.97;;;6.21;100.00
74169;BME280;62523;53.336;83.690;2023-05-10T23:07:23;99658.19;;;5.97;100.00
74169;BME280;62523;53.336;83.690;2023-05-10T23:12:25;99667.38;;;5.80;100.00
74169;BME280;62523;53.336;83.690;2023-05-10T23:17:27;99661.34;;;5.48;100.00
74169;BME280;62523;53.336;83.690;2023-05-10T23:22:29;99656.44;;;5.38;100.00
74169;BME280;62523;53.336;83.690;2023-05-10T23:27:31;99654.03;;;5.31;100.00
74169;BME280;62523;53.336;83.690;2023-05-10T23:32:33;99658.56;;;5.83;100.00
74169;BME280;62523;53.336;83.690;2023-05-10T23:37:35;99650.59;;;6.41;100.00
74169;BME280;62523;53.336;83.690;2023-05-10T23:42:37;99653.66;;;6.79;100.00
74169;BME280;62523;53.336;83.690;2023-05-10T23:47:40;99652.28;;;6.68;100.00
74169;BME280;62523;53.336;83.690;2023-05-10T23:52:42;99641.91;;;7.14;100.00
74169;BME280;62523;53.336;83.690;2023-05-10T23:57:44;99639.00;;;7.89;100.00
